GLD1793 SDEN-SBFL
Flight info
| Callsign | GLD1793 |
|---|---|
| Flight time | 0h 20m |
| Altitude | 30000 |
| Route | SBFL |
| Aircraft | BE58/M-SDFGIRY/S |
Departure
| Time | 2026-05-04 22:54 |
|---|---|
| Airport | Costa Esmeralda Airport (SDEN) |
Arrival
| Time | 2026-05-04 23:14 |
|---|---|
| Airport | Hercílio Luz International Airport (SBFL) |
| Time | Latitude | Longitude | Altitude | Speed | Heading |
|---|---|---|---|---|---|
| 2026-05-04 22:30 | -27.16755 | -48.61960 | 29 ft | 0 kts | 47° |
| 2026-05-04 22:43 | -27.16752 | -48.61958 | 28 ft | 2 kts | 14° |
| 2026-05-04 22:43 | -27.16746 | -48.61963 | 28 ft | 1 kts | 290° |
| 2026-05-04 22:43 | -27.16743 | -48.61983 | 28 ft | 5 kts | 281° |
| 2026-05-04 22:43 | -27.16720 | -48.62025 | 29 ft | 6 kts | 310° |
| 2026-05-04 22:44 | -27.16704 | -48.62053 | 29 ft | 4 kts | 295° |
| 2026-05-04 22:44 | -27.16695 | -48.62071 | 29 ft | 1 kts | 300° |
| 2026-05-04 22:44 | -27.16682 | -48.62088 | 29 ft | 9 kts | 313° |
| 2026-05-04 22:44 | -27.16615 | -48.62172 | 29 ft | 18 kts | 311° |
| 2026-05-04 22:45 | -27.16541 | -48.62266 | 32 ft | 14 kts | 310° |
| 2026-05-04 22:45 | -27.16496 | -48.62347 | 34 ft | 0 kts | 228° |
| 2026-05-04 22:52 | -27.16497 | -48.62348 | 34 ft | 2 kts | 226° |
| 2026-05-04 22:53 | -27.16513 | -48.62350 | 34 ft | 5 kts | 158° |
| 2026-05-04 22:53 | -27.16549 | -48.62308 | 34 ft | 20 kts | 131° |
| 2026-05-04 22:53 | -27.16860 | -48.61916 | 38 ft | 104 kts | 133° |
| 2026-05-04 22:53 | -27.17365 | -48.61295 | 446 ft | 109 kts | 124° |
| 2026-05-04 22:54 | -27.17399 | -48.60459 | 717 ft | 122 kts | 55° |
| 2026-05-04 22:54 | -27.16613 | -48.59933 | 781 ft | 151 kts | 18° |
| 2026-05-04 22:54 | -27.15646 | -48.59320 | 886 ft | 166 kts | 37° |
| 2026-05-04 22:54 | -27.14906 | -48.58339 | 971 ft | 168 kts | 56° |
| 2026-05-04 22:55 | -27.14316 | -48.57197 | 1043 ft | 172 kts | 58° |
| 2026-05-04 22:55 | -27.13713 | -48.55992 | 1141 ft | 180 kts | 58° |
| 2026-05-04 22:55 | -27.13088 | -48.54758 | 1254 ft | 183 kts | 57° |
| 2026-05-04 22:55 | -27.12453 | -48.53509 | 1351 ft | 185 kts | 57° |
| 2026-05-04 22:56 | -27.11812 | -48.52243 | 1445 ft | 186 kts | 57° |
| 2026-05-04 22:56 | -27.11180 | -48.50997 | 1538 ft | 185 kts | 57° |
| 2026-05-04 22:56 | -27.10545 | -48.49741 | 1636 ft | 185 kts | 57° |
| 2026-05-04 22:56 | -27.09905 | -48.48483 | 1740 ft | 185 kts | 57° |
| 2026-05-04 22:57 | -27.09265 | -48.47220 | 1839 ft | 186 kts | 57° |
| 2026-05-04 22:57 | -27.08625 | -48.45960 | 1934 ft | 186 kts | 56° |
| 2026-05-04 22:57 | -27.08015 | -48.44683 | 2031 ft | 188 kts | 66° |
| 2026-05-04 22:57 | -27.08009 | -48.43198 | 2090 ft | 199 kts | 104° |
| 2026-05-04 22:58 | -27.08851 | -48.41975 | 2136 ft | 208 kts | 143° |
| 2026-05-04 22:58 | -27.10230 | -48.41517 | 2199 ft | 210 kts | 179° |
| 2026-05-04 22:58 | -27.11690 | -48.41548 | 2281 ft | 210 kts | 177° |
| 2026-05-04 22:58 | -27.13137 | -48.41293 | 2374 ft | 210 kts | 166° |
| 2026-05-04 22:59 | -27.14522 | -48.40909 | 2479 ft | 210 kts | 165° |
| 2026-05-04 22:59 | -27.15464 | -48.40659 | 2550 ft | 211 kts | 166° |
| 2026-05-04 22:59 | -27.16897 | -48.40301 | 2633 ft | 213 kts | 167° |
| 2026-05-04 22:59 | -27.18362 | -48.39942 | 2640 ft | 216 kts | 167° |
| 2026-05-04 23:00 | -27.19836 | -48.39577 | 2642 ft | 217 kts | 167° |
| 2026-05-04 23:00 | -27.21311 | -48.39211 | 2644 ft | 217 kts | 167° |
| 2026-05-04 23:00 | -27.22782 | -48.38845 | 2643 ft | 216 kts | 168° |
| 2026-05-04 23:00 | -27.24250 | -48.38480 | 2643 ft | 216 kts | 168° |
| 2026-05-04 23:01 | -27.25723 | -48.38113 | 2644 ft | 218 kts | 168° |
| 2026-05-04 23:01 | -27.27159 | -48.37757 | 2645 ft | 218 kts | 168° |
| 2026-05-04 23:01 | -27.28668 | -48.37381 | 2645 ft | 219 kts | 168° |
| 2026-05-04 23:01 | -27.30157 | -48.37011 | 2647 ft | 220 kts | 168° |
| 2026-05-04 23:02 | -27.31638 | -48.36642 | 2641 ft | 210 kts | 168° |
| 2026-05-04 23:02 | -27.33032 | -48.36294 | 2634 ft | 208 kts | 167° |
| 2026-05-04 23:02 | -27.34456 | -48.35940 | 2633 ft | 212 kts | 167° |
| 2026-05-04 23:02 | -27.35869 | -48.35589 | 2628 ft | 197 kts | 167° |
| 2026-05-04 23:03 | -27.37155 | -48.35268 | 2626 ft | 182 kts | 167° |
| 2026-05-04 23:03 | -27.38364 | -48.34966 | 2625 ft | 175 kts | 167° |
| 2026-05-04 23:03 | -27.39540 | -48.34673 | 2624 ft | 173 kts | 169° |
| 2026-05-04 23:03 | -27.40723 | -48.34431 | 2621 ft | 171 kts | 183° |
| 2026-05-04 23:04 | -27.41889 | -48.34575 | 2622 ft | 167 kts | 192° |
| 2026-05-04 23:04 | -27.43044 | -48.34725 | 2615 ft | 167 kts | 188° |
| 2026-05-04 23:04 | -27.44178 | -48.34818 | 2614 ft | 164 kts | 187° |
| 2026-05-04 23:04 | -27.45310 | -48.34896 | 2617 ft | 163 kts | 187° |
| 2026-05-04 23:05 | -27.46437 | -48.34975 | 2610 ft | 162 kts | 187° |
| 2026-05-04 23:05 | -27.47557 | -48.35053 | 2612 ft | 161 kts | 187° |
| 2026-05-04 23:05 | -27.48676 | -48.35131 | 2604 ft | 161 kts | 188° |
| 2026-05-04 23:05 | -27.49793 | -48.35208 | 2609 ft | 161 kts | 188° |
| 2026-05-04 23:06 | -27.50906 | -48.35287 | 2606 ft | 160 kts | 188° |
| 2026-05-04 23:06 | -27.52018 | -48.35364 | 2609 ft | 160 kts | 188° |
| 2026-05-04 23:06 | -27.53129 | -48.35441 | 2611 ft | 159 kts | 187° |
| 2026-05-04 23:06 | -27.54227 | -48.35519 | 2610 ft | 160 kts | 187° |
| 2026-05-04 23:07 | -27.55344 | -48.35597 | 2612 ft | 161 kts | 187° |
| 2026-05-04 23:07 | -27.56468 | -48.35675 | 2608 ft | 162 kts | 187° |
| 2026-05-04 23:07 | -27.57600 | -48.35754 | 2609 ft | 164 kts | 187° |
| 2026-05-04 23:07 | -27.58739 | -48.35834 | 2607 ft | 164 kts | 188° |
| 2026-05-04 23:08 | -27.59870 | -48.35912 | 2604 ft | 162 kts | 188° |
| 2026-05-04 23:08 | -27.60990 | -48.35990 | 2606 ft | 161 kts | 188° |
| 2026-05-04 23:08 | -27.62105 | -48.36068 | 2616 ft | 159 kts | 188° |
| 2026-05-04 23:08 | -27.63207 | -48.36145 | 2619 ft | 158 kts | 188° |
| 2026-05-04 23:09 | -27.64310 | -48.36222 | 2619 ft | 158 kts | 188° |
| 2026-05-04 23:09 | -27.65416 | -48.36300 | 2615 ft | 159 kts | 188° |
| 2026-05-04 23:09 | -27.66514 | -48.36377 | 2612 ft | 160 kts | 188° |
| 2026-05-04 23:09 | -27.67624 | -48.36455 | 2616 ft | 160 kts | 188° |
| 2026-05-04 23:10 | -27.68762 | -48.36536 | 2615 ft | 175 kts | 188° |
| 2026-05-04 23:10 | -27.70067 | -48.36632 | 2620 ft | 198 kts | 187° |
| 2026-05-04 23:10 | -27.71451 | -48.36903 | 2619 ft | 205 kts | 206° |
| 2026-05-04 23:10 | -27.72644 | -48.37768 | 2611 ft | 204 kts | 230° |
| 2026-05-04 23:11 | -27.73438 | -48.39055 | 2617 ft | 197 kts | 252° |
| 2026-05-04 23:11 | -27.73743 | -48.40549 | 2438 ft | 197 kts | 273° |
| 2026-05-04 23:11 | -27.73535 | -48.42062 | 2184 ft | 195 kts | 294° |
| 2026-05-04 23:11 | -27.72895 | -48.43398 | 1930 ft | 194 kts | 306° |
| 2026-05-04 23:12 | -27.72178 | -48.44707 | 1685 ft | 199 kts | 303° |
| 2026-05-04 23:12 | -27.71452 | -48.46059 | 1416 ft | 202 kts | 303° |
| 2026-05-04 23:12 | -27.70756 | -48.47357 | 1163 ft | 183 kts | 304° |
| 2026-05-04 23:12 | -27.70132 | -48.48525 | 930 ft | 164 kts | 304° |
| 2026-05-04 23:13 | -27.69582 | -48.49549 | 726 ft | 148 kts | 304° |
| 2026-05-04 23:13 | -27.69094 | -48.50451 | 563 ft | 124 kts | 303° |
| 2026-05-04 23:13 | -27.68676 | -48.51219 | 403 ft | 109 kts | 302° |
| 2026-05-04 23:13 | -27.68298 | -48.51916 | 263 ft | 99 kts | 302° |
| 2026-05-04 23:14 | -27.67951 | -48.52564 | 132 ft | 93 kts | 305° |
| 2026-05-04 23:14 | -27.67626 | -48.53161 | 22 ft | 85 kts | 303° |
| 2026-05-04 23:14 | -27.67275 | -48.53625 | 24 ft | 61 kts | 315° |
| 2026-05-04 23:14 | -27.67065 | -48.53829 | 22 ft | 27 kts | 329° |
| 2026-05-04 23:15 | -27.66939 | -48.53904 | 21 ft | 15 kts | 331° |
| 2026-05-04 23:15 | -27.66884 | -48.53944 | 21 ft | 8 kts | 322° |
| 2026-05-04 23:15 | -27.66851 | -48.53975 | 21 ft | 4 kts | 316° |
| 2026-05-04 23:15 | -27.66843 | -48.53984 | 21 ft | 0 kts | 314° |